createdAt,value
2023-04-01T00:02:24.201Z,3.12
2023-04-01T00:04:50.739Z,3.24
2023-04-01T00:07:17.230Z,2.97
2023-04-01T00:09:43.680Z,3.04
2023-04-01T00:12:10.141Z,3.04
2023-04-01T00:14:36.592Z,3.57
2023-04-01T00:17:03.186Z,3.22
2023-04-01T00:19:29.747Z,3.25
2023-04-01T00:21:56.270Z,3.53
2023-04-01T00:24:22.739Z,3.76
2023-04-01T00:26:49.205Z,3.41
2023-04-01T00:29:15.669Z,3.70
2023-04-01T00:31:42.199Z,3.27
2023-04-01T00:34:08.748Z,4.01
2023-04-01T00:36:35.258Z,3.49
2023-04-01T00:39:01.778Z,3.34
2023-04-01T00:41:28.241Z,3.20
2023-04-01T00:44:24.815Z,3.50
2023-04-01T00:46:52.173Z,3.37
2023-04-01T00:49:23.156Z,3.45
2023-04-01T00:51:54.085Z,3.08
2023-04-01T00:54:23.488Z,2.83
2023-04-01T00:56:57.004Z,2.61
2023-04-01T00:59:28.328Z,3.01
2023-04-01T01:01:54.831Z,2.66
2023-04-01T01:04:33.751Z,2.94
2023-04-01T01:07:12.071Z,2.69
2023-04-01T01:10:00.348Z,2.43
2023-04-01T01:12:37.732Z,2.17
2023-04-01T01:15:31.770Z,2.19
2023-04-01T01:18:19.502Z,2.26
2023-04-01T01:21:17.273Z,2.45
2023-04-01T01:24:22.577Z,3.38
2023-04-01T01:27:05.705Z,2.39
2023-04-01T01:29:56.801Z,2.56
2023-04-01T01:32:26.130Z,3.63
2023-04-01T01:35:21.450Z,3.88
2023-04-01T01:37:54.585Z,3.56
2023-04-01T01:40:22.174Z,2.74
2023-04-01T01:42:55.644Z,2.32
2023-04-01T01:45:27.044Z,2.56
2023-04-01T01:47:57.258Z,2.97
2023-04-01T01:50:26.472Z,2.28
2023-04-01T01:53:04.696Z,1.91
2023-04-01T01:55:40.416Z,2.57
2023-04-01T01:58:33.399Z,2.45
2023-04-01T02:01:03.328Z,1.95
2023-04-01T02:03:35.239Z,1.71
2023-04-01T02:06:07.062Z,2.01
2023-04-01T02:08:57.218Z,2.08
2023-04-01T02:11:31.086Z,2.20
2023-04-01T02:14:06.826Z,2.16
2023-04-01T02:17:09.266Z,2.16
2023-04-01T02:19:44.595Z,3.65
2023-04-01T02:22:17.462Z,4.84
2023-04-01T02:24:44.583Z,5.24
2023-04-01T02:27:11.814Z,5.24
2023-04-01T02:29:38.653Z,5.00
2023-04-01T02:32:09.633Z,4.13
2023-04-01T02:34:37.168Z,4.97
2023-04-01T02:37:03.653Z,3.28
2023-04-01T02:39:30.572Z,2.38
2023-04-01T02:41:57.147Z,2.10
2023-04-01T02:44:23.613Z,2.28
2023-04-01T02:46:50.112Z,2.14
2023-04-01T02:49:16.645Z,1.71
2023-04-01T02:51:43.158Z,2.01
2023-04-01T02:54:09.632Z,2.06
2023-04-01T02:56:36.167Z,1.77
2023-04-01T02:59:02.706Z,1.88
2023-04-01T03:01:29.244Z,1.91
2023-04-01T03:03:55.799Z,2.08
2023-04-01T03:06:22.248Z,1.88
2023-04-01T03:08:48.822Z,2.04
2023-04-01T03:11:15.331Z,1.97
2023-04-01T03:13:41.929Z,1.80
2023-04-01T03:16:08.443Z,1.51
2023-04-01T03:18:34.941Z,1.69
2023-04-01T03:21:33.956Z,1.74
2023-04-01T03:24:00.465Z,1.63
2023-04-01T03:26:27.032Z,1.97
2023-04-01T03:28:53.952Z,1.76
2023-04-01T03:31:22.293Z,1.64
2023-04-01T03:33:50.040Z,1.63
2023-04-01T03:36:16.604Z,1.69
2023-04-01T03:38:45.193Z,1.65
2023-04-01T03:41:16.660Z,1.77
2023-04-01T03:43:43.321Z,1.95
2023-04-01T03:46:09.896Z,1.66
2023-04-01T03:48:36.740Z,1.91
2023-04-01T03:51:07.876Z,2.00
2023-04-01T03:53:34.342Z,1.60
2023-04-01T03:56:05.313Z,1.84
2023-04-01T03:58:31.792Z,1.57
2023-04-01T04:00:58.261Z,1.80
2023-04-01T04:03:24.948Z,2.23
2023-04-01T04:05:51.560Z,2.73
2023-04-01T04:08:18.469Z,3.22
2023-04-01T04:10:45.507Z,2.48
2023-04-01T04:13:11.964Z,2.17
2023-04-01T04:15:39.387Z,2.83
2023-04-01T04:18:05.975Z,2.99
2023-04-01T04:20:32.535Z,3.55
2023-04-01T04:23:00.779Z,3.54
2023-04-01T04:25:27.251Z,2.48
2023-04-01T04:27:53.746Z,2.15
2023-04-01T04:30:20.273Z,2.22
2023-04-01T04:32:46.770Z,2.13
2023-04-01T04:35:13.310Z,2.37
2023-04-01T04:37:39.769Z,2.03
2023-04-01T04:40:06.951Z,1.69
2023-04-01T04:42:33.501Z,1.61
2023-04-01T04:44:59.940Z,1.77
2023-04-01T04:47:26.470Z,1.82
2023-04-01T04:49:53.010Z,1.84
2023-04-01T04:52:19.466Z,1.59
2023-04-01T04:54:45.926Z,1.81
2023-04-01T04:57:12.442Z,1.96
2023-04-01T04:59:38.994Z,2.09
2023-04-01T05:02:05.519Z,2.02
2023-04-01T05:04:36.200Z,1.90
2023-04-01T05:07:02.682Z,1.92
2023-04-01T05:09:29.170Z,1.65
2023-04-01T05:11:55.639Z,1.75
2023-04-01T05:14:22.112Z,1.40
2023-04-01T05:16:48.614Z,1.40
2023-04-01T05:19:15.092Z,1.24
2023-04-01T05:21:41.576Z,1.37
2023-04-01T05:24:09.312Z,0.98
2023-04-01T05:26:35.811Z,1.07
2023-04-01T05:29:02.266Z,1.34
2023-04-01T05:31:28.819Z,1.32
2023-04-01T05:33:55.614Z,1.21
2023-04-01T05:36:22.951Z,1.20
2023-04-01T05:38:49.457Z,1.36
2023-04-01T05:41:16.404Z,1.18
2023-04-01T05:43:43.165Z,1.36
2023-04-01T05:46:09.832Z,1.37
2023-04-01T05:48:36.920Z,1.48
2023-04-01T05:51:04.514Z,1.59
2023-04-01T05:53:31.101Z,1.45
2023-04-01T05:55:57.629Z,1.47
2023-04-01T05:58:24.091Z,1.63
2023-04-01T06:01:02.336Z,1.71
2023-04-01T06:03:35.369Z,1.76
2023-04-01T06:06:02.480Z,1.71
2023-04-01T06:08:31.869Z,1.62
2023-04-01T06:10:58.290Z,1.49
2023-04-01T06:13:27.641Z,1.89
2023-04-01T06:16:28.402Z,2.18
2023-04-01T06:19:14.020Z,2.38
2023-04-01T06:22:04.853Z,2.05
2023-04-01T06:25:20.313Z,2.50
2023-04-01T06:28:27.374Z,1.35
2023-04-01T06:31:21.854Z,0.98
2023-04-01T06:34:09.818Z,0.94
2023-04-01T06:36:58.092Z,0.76
2023-04-01T06:39:36.728Z,0.77
2023-04-01T06:42:11.826Z,1.14
2023-04-01T06:44:54.202Z,1.03
2023-04-01T06:47:40.347Z,1.32
2023-04-01T06:50:09.635Z,0.97
2023-04-01T06:53:18.622Z,0.85
2023-04-01T06:55:54.726Z,0.67
2023-04-01T06:58:32.374Z,0.91
2023-04-01T07:01:04.536Z,0.80
2023-04-01T07:03:36.854Z,0.70
2023-04-01T07:06:13.453Z,0.78
2023-04-01T07:08:45.552Z,0.83
2023-04-01T07:11:24.816Z,0.86
2023-04-01T07:14:00.546Z,0.57
2023-04-01T07:16:39.797Z,0.64
2023-04-01T07:19:32.442Z,0.82
2023-04-01T07:22:05.604Z,0.92
2023-04-01T07:24:38.370Z,0.55
2023-04-01T07:27:11.212Z,0.64
2023-04-01T07:29:37.738Z,0.70
2023-04-01T07:32:28.289Z,0.83
2023-04-01T07:35:00.420Z,0.90
2023-04-01T07:37:57.924Z,0.89
2023-04-01T07:40:53.378Z,1.35
2023-04-01T07:43:43.250Z,1.26
2023-04-01T07:46:42.578Z,1.82
2023-04-01T07:49:23.788Z,1.86
2023-04-01T07:52:14.778Z,3.26
2023-04-01T07:54:57.871Z,1.19
2023-04-01T07:57:33.762Z,0.98
2023-04-01T08:00:05.092Z,1.01
2023-04-01T08:03:03.842Z,0.81
2023-04-01T08:05:37.501Z,0.78
2023-04-01T08:08:31.925Z,0.73
2023-04-01T08:11:30.484Z,0.72
2023-04-01T08:14:17.780Z,0.89
2023-04-01T08:17:02.380Z,0.76
2023-04-01T08:19:36.924Z,0.97
2023-04-01T08:22:15.699Z,0.95
2023-04-01T08:24:48.107Z,0.79
2023-04-01T08:27:52.188Z,0.78
2023-04-01T08:30:36.592Z,0.83
2023-04-01T08:33:20.495Z,0.92
2023-04-01T08:35:54.849Z,0.88
2023-04-01T08:38:37.607Z,0.95
2023-04-01T08:41:19.503Z,1.22
2023-04-01T08:43:57.848Z,1.17
2023-04-01T08:46:47.361Z,0.95
2023-04-01T08:49:27.564Z,1.01
2023-04-01T08:52:11.955Z,0.96
2023-04-01T08:54:58.116Z,1.01
2023-04-01T08:57:40.372Z,0.82
2023-04-01T09:00:09.531Z,0.77
2023-04-01T09:02:52.190Z,0.80
2023-04-01T09:05:28.267Z,0.70
2023-04-01T09:08:00.660Z,0.89
2023-04-01T09:10:53.362Z,0.79
2023-04-01T09:16:16.748Z,0.66
2023-04-01T09:19:17.314Z,0.70
2023-04-01T09:22:16.325Z,0.62
2023-04-01T09:25:16.169Z,0.64
2023-04-01T09:27:57.447Z,0.71
2023-04-01T09:31:13.297Z,0.62
2023-04-01T09:33:48.092Z,0.75
2023-04-01T09:36:29.781Z,0.83
2023-04-01T09:38:58.733Z,0.89
2023-04-01T09:41:37.570Z,0.94
2023-04-01T09:44:17.888Z,0.70
2023-04-01T09:47:21.946Z,0.78
2023-04-01T09:50:01.434Z,0.80
2023-04-01T09:52:45.370Z,0.75
2023-04-01T09:55:56.180Z,0.73
2023-04-01T09:58:43.828Z,0.97
2023-04-01T10:01:29.282Z,1.01
2023-04-01T10:04:19.377Z,0.90
2023-04-01T10:07:31.815Z,0.91
2023-04-01T10:10:07.381Z,1.07
2023-04-01T10:13:25.743Z,1.21
2023-04-01T10:16:22.418Z,1.16
2023-04-01T10:19:21.344Z,1.27
2023-04-01T10:21:56.775Z,1.18
2023-04-01T10:25:00.777Z,1.23
2023-04-01T10:28:04.544Z,1.19
2023-04-01T10:31:15.457Z,1.01
2023-04-01T10:34:28.969Z,0.88
2023-04-01T10:37:05.608Z,0.89
2023-04-01T10:39:51.012Z,0.91
2023-04-01T10:42:57.084Z,1.11
2023-04-01T10:45:37.007Z,1.03
2023-04-01T10:48:34.227Z,1.05
2023-04-01T10:51:34.184Z,0.97
2023-04-01T10:54:21.956Z,1.17
2023-04-01T10:57:05.073Z,1.22
2023-04-01T11:00:04.976Z,1.45
2023-04-01T11:03:24.232Z,1.34
2023-04-01T11:06:41.850Z,1.21
2023-04-01T11:09:30.267Z,1.26
2023-04-01T11:12:18.301Z,1.03
2023-04-01T11:15:03.515Z,1.28
2023-04-01T11:17:40.547Z,1.28
2023-04-01T11:20:32.466Z,1.36
2023-04-01T11:23:37.366Z,1.27
2023-04-01T11:26:28.132Z,1.33
2023-04-01T11:29:31.372Z,1.06
2023-04-01T11:32:35.968Z,1.04
2023-04-01T11:35:31.349Z,1.07
2023-04-01T11:38:20.733Z,0.87
2023-04-01T11:41:08.351Z,0.90
2023-04-01T11:43:43.765Z,1.26
2023-04-01T11:46:19.191Z,1.01
2023-04-01T11:49:06.998Z,0.93
2023-04-01T11:52:07.500Z,1.97
2023-04-01T11:54:56.266Z,0.94
2023-04-01T11:57:28.566Z,0.96
2023-04-01T12:00:06.894Z,0.90
2023-04-01T12:03:11.524Z,0.92
2023-04-01T12:05:45.233Z,0.89
2023-04-01T12:08:29.425Z,0.75
2023-04-01T12:11:33.980Z,0.86
2023-04-01T12:14:21.219Z,0.94
2023-04-01T12:17:04.764Z,1.27
2023-04-01T12:20:05.937Z,0.86
2023-04-01T12:22:47.360Z,0.77
2023-04-01T12:25:50.927Z,0.70
2023-04-01T12:28:49.361Z,0.71
2023-04-01T12:31:31.824Z,0.66
2023-04-01T12:34:14.281Z,0.61
2023-04-01T12:37:02.477Z,0.77
2023-04-01T12:39:49.277Z,0.48
2023-04-01T12:42:33.230Z,0.64
2023-04-01T12:45:24.009Z,0.83
2023-04-01T12:48:12.325Z,0.59
2023-04-01T12:51:10.893Z,0.58
2023-04-01T12:53:37.302Z,0.57
2023-04-01T12:56:13.814Z,0.57
2023-04-01T12:58:55.501Z,0.72
2023-04-01T13:01:46.812Z,0.82
2023-04-01T13:04:40.767Z,0.87
2023-04-01T13:07:32.017Z,0.76
2023-04-01T13:10:14.360Z,0.71
2023-04-01T13:13:21.159Z,0.99
2023-04-01T13:16:04.586Z,0.97
2023-04-01T13:18:48.905Z,0.83
2023-04-01T13:21:44.373Z,0.86
2023-04-01T13:24:21.110Z,0.88
2023-04-01T13:26:56.629Z,0.85
2023-04-01T13:29:33.646Z,0.73
2023-04-01T13:32:27.673Z,0.71
2023-04-01T13:35:14.610Z,0.64
2023-04-01T13:38:15.382Z,0.57
2023-04-01T13:41:04.478Z,0.58
2023-04-01T13:43:48.573Z,0.59
2023-04-01T13:46:42.508Z,0.66
2023-04-01T13:49:33.232Z,0.46
2023-04-01T13:52:08.579Z,0.56
2023-04-01T13:54:51.093Z,0.55
2023-04-01T13:57:44.256Z,0.59
2023-04-01T14:00:51.885Z,0.74
2023-04-01T14:03:49.361Z,0.75
2023-04-01T14:06:27.777Z,0.72
2023-04-01T14:09:19.191Z,0.66
2023-04-01T14:12:01.773Z,0.59
2023-04-01T14:14:37.883Z,0.78
2023-04-01T14:17:13.775Z,0.69
2023-04-01T14:20:03.952Z,0.82
2023-04-01T14:22:55.112Z,0.77
2023-04-01T14:25:30.722Z,0.81
2023-04-01T14:28:13.387Z,0.87
2023-04-01T14:30:48.361Z,0.68
2023-04-01T14:33:32.283Z,0.74
2023-04-01T14:36:18.753Z,0.70
2023-04-01T14:39:16.959Z,0.71
2023-04-01T14:42:21.899Z,0.84
2023-04-01T14:45:19.720Z,0.93
2023-04-01T14:48:05.670Z,0.90
2023-04-01T14:50:45.384Z,0.91
2023-04-01T14:55:56.695Z,0.98
2023-04-01T14:58:43.236Z,0.82
2023-04-01T15:01:55.796Z,0.95
2023-04-01T15:04:44.195Z,0.86
2023-04-01T15:07:43.826Z,0.87
2023-04-01T15:10:47.273Z,0.87
2023-04-01T15:13:44.641Z,0.97
2023-04-01T15:16:25.363Z,0.98
2023-04-01T15:19:12.766Z,1.01
2023-04-01T15:21:49.379Z,0.76
2023-04-01T15:24:39.737Z,1.03
2023-04-01T15:27:21.296Z,1.07
2023-04-01T15:30:43.141Z,0.79
2023-04-01T15:33:29.548Z,0.62
2023-04-01T15:35:58.760Z,0.63
2023-04-01T15:38:45.142Z,0.76
2023-04-01T15:41:17.830Z,0.67
2023-04-01T15:43:49.317Z,0.72
2023-04-01T15:46:42.673Z,0.56
2023-04-01T15:49:33.106Z,0.66
2023-04-01T15:52:06.516Z,0.77
2023-04-01T15:54:54.400Z,0.83
2023-04-01T15:57:54.695Z,0.90
2023-04-01T16:00:35.570Z,0.82
2023-04-01T16:03:14.908Z,0.95
2023-04-01T16:05:59.975Z,0.90
2023-04-01T16:08:50.154Z,1.00
2023-04-01T16:11:28.774Z,1.00
2023-04-01T16:14:10.764Z,1.22
2023-04-01T16:16:58.358Z,1.31
2023-04-01T16:19:27.814Z,1.42
2023-04-01T16:22:34.849Z,2.07
2023-04-01T16:25:38.571Z,4.32
2023-04-01T16:28:26.384Z,2.23
2023-04-01T16:31:07.529Z,1.45
2023-04-01T16:34:02.814Z,1.67
2023-04-01T16:36:33.638Z,2.25
2023-04-01T16:39:28.065Z,2.04
2023-04-01T16:42:21.918Z,4.60
2023-04-01T16:44:56.359Z,1.93
2023-04-01T16:47:33.105Z,1.95
2023-04-01T16:50:40.443Z,2.29
2023-04-01T16:53:22.214Z,1.83
2023-04-01T16:55:53.914Z,1.56
2023-04-01T16:58:34.151Z,1.26
2023-04-01T17:01:12.991Z,1.63
2023-04-01T17:04:07.261Z,1.80
2023-04-01T17:06:57.234Z,1.70
2023-04-01T17:09:43.236Z,1.60
2023-04-01T17:12:28.332Z,1.63
2023-04-01T17:15:11.265Z,1.88
2023-04-01T17:18:04.949Z,2.26
2023-04-01T17:20:41.663Z,2.14
2023-04-01T17:23:41.008Z,1.91
2023-04-01T17:26:28.298Z,1.80
2023-04-01T17:29:07.155Z,1.59
2023-04-01T17:32:14.034Z,1.49
2023-04-01T17:34:51.732Z,1.79
2023-04-01T17:37:51.389Z,1.56
2023-04-01T17:40:53.484Z,1.49
2023-04-01T17:43:44.149Z,1.22
2023-04-01T17:47:01.275Z,1.24
2023-04-01T17:49:40.466Z,1.45
2023-04-01T17:52:40.846Z,1.73
2023-04-01T17:55:16.045Z,1.48
2023-04-01T17:57:48.617Z,1.44
2023-04-01T18:00:35.297Z,1.77
2023-04-01T18:03:36.681Z,1.56
2023-04-01T18:06:18.932Z,1.37
2023-04-01T18:09:26.267Z,1.36
2023-04-01T18:12:28.572Z,1.17
2023-04-01T18:15:21.631Z,1.28
2023-04-01T18:18:11.465Z,1.32
2023-04-01T18:20:40.868Z,1.18
2023-04-01T18:23:23.622Z,1.44
2023-04-01T18:26:05.067Z,1.69
2023-04-01T18:28:31.529Z,1.43
2023-04-01T18:31:09.384Z,1.43
2023-04-01T18:33:54.201Z,1.39
2023-04-01T18:36:39.273Z,1.36
2023-04-01T18:39:11.834Z,1.40
2023-04-01T18:41:48.499Z,1.72
2023-04-01T18:44:39.230Z,1.63
2023-04-01T18:47:17.675Z,1.60
2023-04-01T18:50:22.687Z,1.48
2023-04-01T18:52:58.459Z,1.60
2023-04-01T18:55:40.086Z,1.42
2023-04-01T18:58:27.471Z,1.39
2023-04-01T19:01:09.403Z,2.01
2023-04-01T19:03:47.177Z,1.94
2023-04-01T19:06:28.646Z,2.62
2023-04-01T19:08:55.417Z,1.92
2023-04-01T19:11:47.897Z,2.03
2023-04-01T19:15:06.454Z,2.66
2023-04-01T19:18:10.277Z,1.63
2023-04-01T19:20:56.790Z,1.83
2023-04-01T19:23:31.647Z,1.66
2023-04-01T19:26:02.413Z,1.53
2023-04-01T19:28:57.066Z,1.48
2023-04-01T19:31:53.545Z,1.80
2023-04-01T19:34:32.950Z,1.82
2023-04-01T19:37:12.304Z,1.27
2023-04-01T19:39:44.569Z,1.46
2023-04-01T19:42:51.057Z,1.17
2023-04-01T19:45:44.786Z,1.55
2023-04-01T19:48:33.451Z,1.42
2023-04-01T19:51:32.157Z,1.30
2023-04-01T19:54:04.499Z,1.26
2023-04-01T19:56:44.138Z,1.32
2023-04-01T19:59:31.205Z,1.28
2023-04-01T20:02:38.316Z,1.50
2023-04-01T20:05:29.900Z,1.62
2023-04-01T20:08:36.544Z,1.48
2023-04-01T20:11:08.622Z,1.29
2023-04-01T20:14:07.462Z,1.34
2023-04-01T20:16:59.703Z,1.71
2023-04-01T20:19:37.300Z,1.48
2023-04-01T20:22:17.188Z,1.48
2023-04-01T20:24:47.425Z,1.38
2023-04-01T20:27:13.993Z,1.46
2023-04-01T20:30:14.570Z,1.24
2023-04-01T20:32:59.606Z,1.52
2023-04-01T20:36:01.765Z,2.25
2023-04-01T20:38:56.414Z,1.79
2023-04-01T20:41:53.220Z,1.32
2023-04-01T20:44:38.228Z,1.32
2023-04-01T20:47:48.464Z,1.26
2023-04-01T20:50:40.089Z,1.39
2023-04-01T20:53:28.995Z,1.48
2023-04-01T20:56:08.477Z,1.31
2023-04-01T20:58:59.432Z,1.31
2023-04-01T21:01:54.022Z,1.26
2023-04-01T21:04:31.921Z,1.44
2023-04-01T21:07:20.358Z,1.48
2023-04-01T21:10:24.376Z,1.35
2023-04-01T21:13:13.964Z,1.59
2023-04-01T21:15:59.176Z,1.25
2023-04-01T21:18:36.160Z,1.69
2023-04-01T21:21:22.283Z,1.55
2023-04-01T21:24:29.574Z,1.52
2023-04-01T21:27:35.775Z,1.28
2023-04-01T21:30:12.818Z,1.09
2023-04-01T21:33:00.704Z,1.35
2023-04-01T21:35:38.946Z,1.37
2023-04-01T21:38:27.115Z,1.19
2023-04-01T21:41:03.168Z,1.29
2023-04-01T21:43:51.400Z,1.23
2023-04-01T21:46:45.455Z,0.95
2023-04-01T21:49:50.130Z,1.06
2023-04-01T21:52:55.493Z,1.14
2023-04-01T21:56:10.609Z,0.92
2023-04-01T21:59:00.405Z,1.31
2023-04-01T22:02:02.005Z,2.18
2023-04-01T22:04:47.483Z,1.47
2023-04-01T22:07:24.472Z,1.17
2023-04-01T22:10:32.880Z,1.39
2023-04-01T22:13:14.735Z,1.32
2023-04-01T22:16:00.481Z,1.58
2023-04-01T22:18:44.936Z,1.83
2023-04-01T22:21:21.291Z,1.74
2023-04-01T22:24:17.195Z,1.63
2023-04-01T22:26:59.513Z,1.58
2023-04-01T22:29:42.884Z,1.53
2023-04-01T22:32:19.635Z,1.56
2023-04-01T22:35:12.589Z,1.68
2023-04-01T22:37:59.642Z,1.46
2023-04-01T22:40:39.427Z,1.49
2023-04-01T22:43:13.749Z,1.60
2023-04-01T22:46:01.643Z,1.55
2023-04-01T22:48:48.253Z,1.53
2023-04-01T22:51:22.743Z,2.12
2023-04-01T22:54:38.718Z,1.77
2023-04-01T22:57:13.280Z,1.52
2023-04-01T22:59:46.242Z,1.31
2023-04-01T23:02:32.537Z,1.20
2023-04-01T23:05:06.219Z,1.28
2023-04-01T23:08:08.984Z,1.23
2023-04-01T23:10:52.204Z,1.24
2023-04-01T23:13:25.124Z,1.38
2023-04-01T23:15:55.097Z,1.19
2023-04-01T23:18:58.138Z,1.52
2023-04-01T23:21:45.548Z,1.67
2023-04-01T23:24:31.883Z,1.47
2023-04-01T23:27:34.555Z,1.73
2023-04-01T23:30:01.152Z,1.57
2023-04-01T23:32:28.402Z,1.26
2023-04-01T23:35:00.711Z,1.36
2023-04-01T23:37:28.281Z,1.53
2023-04-01T23:39:59.418Z,1.68
2023-04-01T23:42:31.315Z,1.39
2023-04-01T23:45:13.083Z,1.37
2023-04-01T23:47:41.903Z,1.43
2023-04-01T23:50:21.909Z,1.58
2023-04-01T23:52:54.737Z,1.46
2023-04-01T23:55:32.931Z,1.25
2023-04-01T23:58:05.669Z,1.40
